createdAt,value
2022-08-17T00:02:25.857Z,21.12
2022-08-17T00:04:54.242Z,21.15
2022-08-17T00:07:21.636Z,21.11
2022-08-17T00:09:48.756Z,21.07
2022-08-17T00:12:42.248Z,21.19
2022-08-17T00:15:05.170Z,21.19
2022-08-17T00:17:32.309Z,21.17
2022-08-17T00:20:00.509Z,21.26
2022-08-17T00:22:32.001Z,21.32
2022-08-17T00:25:07.484Z,21.36
2022-08-17T00:27:35.163Z,21.32
2022-08-17T00:30:02.295Z,21.30
2022-08-17T00:33:15.123Z,21.22
2022-08-17T00:35:19.595Z,21.24
2022-08-17T00:37:46.575Z,21.19
2022-08-17T00:40:15.455Z,21.22
2022-08-17T00:42:44.340Z,21.25
2022-08-17T00:45:15.022Z,21.28
2022-08-17T00:47:44.256Z,21.29
2022-08-17T00:50:14.671Z,21.31
2022-08-17T00:52:51.668Z,21.32
2022-08-17T00:55:20.019Z,21.35
2022-08-17T00:57:55.076Z,21.34
2022-08-17T01:00:30.004Z,21.24
2022-08-17T01:03:11.059Z,21.10
2022-08-17T01:05:42.152Z,21.01
2022-08-17T01:08:13.307Z,21.01
2022-08-17T01:10:57.110Z,21.02
2022-08-17T01:13:40.423Z,20.98
2022-08-17T01:16:12.501Z,20.97
2022-08-17T01:18:40.073Z,20.85
2022-08-17T01:21:14.667Z,20.92
2022-08-17T01:23:42.925Z,20.95
2022-08-17T01:26:10.090Z,20.97
2022-08-17T01:28:55.058Z,20.92
2022-08-17T01:31:24.498Z,20.91
2022-08-17T01:33:51.866Z,20.90
2022-08-17T01:36:19.062Z,20.99
2022-08-17T01:38:46.236Z,20.95
2022-08-17T01:41:16.616Z,20.84
2022-08-17T01:43:54.756Z,20.91
2022-08-17T01:46:27.077Z,20.85
2022-08-17T01:48:56.495Z,20.82
2022-08-17T01:51:29.515Z,20.75
2022-08-17T01:54:00.336Z,20.69
2022-08-17T01:56:30.656Z,20.69
2022-08-17T01:58:57.947Z,20.63
2022-08-17T02:01:29.071Z,20.71
2022-08-17T02:04:00.560Z,20.58
2022-08-17T02:06:31.594Z,20.70
2022-08-17T02:09:16.806Z,20.65
2022-08-17T02:11:44.849Z,20.65
2022-08-17T02:14:13.781Z,20.65
2022-08-17T02:16:42.477Z,20.63
2022-08-17T02:19:13.969Z,20.59
2022-08-17T02:21:43.441Z,20.49
2022-08-17T02:24:15.766Z,20.54
2022-08-17T02:26:43.004Z,20.52
2022-08-17T02:29:10.158Z,20.57
2022-08-17T02:31:38.016Z,20.56
2022-08-17T02:34:06.399Z,20.64
2022-08-17T02:36:34.658Z,20.53
2022-08-17T02:39:07.807Z,20.57
2022-08-17T02:41:35.645Z,20.57
2022-08-17T02:44:03.383Z,20.51
2022-08-17T02:46:31.234Z,20.54
2022-08-17T02:48:59.208Z,20.50
2022-08-17T02:51:27.165Z,20.49
2022-08-17T02:54:35.778Z,20.53
2022-08-17T02:56:41.842Z,20.47
2022-08-17T02:59:09.045Z,20.41
2022-08-17T03:01:36.160Z,20.37
2022-08-17T03:04:03.455Z,20.32
2022-08-17T03:06:31.974Z,20.45
2022-08-17T03:08:59.267Z,20.47
2022-08-17T03:11:26.436Z,20.38
2022-08-17T03:13:53.783Z,20.36
2022-08-17T03:16:21.026Z,20.30
2022-08-17T03:18:48.765Z,20.27
2022-08-17T03:21:15.858Z,20.30
2022-08-17T03:23:43.077Z,20.30
2022-08-17T03:26:15.263Z,20.28
2022-08-17T03:28:43.099Z,20.28
2022-08-17T03:31:10.276Z,20.29
2022-08-17T03:33:37.477Z,20.29
2022-08-17T03:36:04.896Z,20.33
2022-08-17T03:38:39.245Z,20.36
2022-08-17T03:41:07.102Z,20.37
2022-08-17T03:43:35.042Z,20.39
2022-08-17T03:46:34.423Z,20.40
2022-08-17T03:49:22.062Z,20.35
2022-08-17T03:52:07.757Z,20.37
2022-08-17T03:54:53.701Z,20.36
2022-08-17T03:57:21.287Z,20.36
2022-08-17T03:59:48.538Z,20.25
2022-08-17T04:02:36.219Z,20.31
2022-08-17T04:05:03.547Z,20.34
2022-08-17T04:07:32.060Z,20.30
2022-08-17T04:09:59.792Z,20.28
2022-08-17T04:12:31.242Z,20.34
2022-08-17T04:14:58.979Z,20.40
2022-08-17T04:17:27.895Z,20.35
2022-08-17T04:19:55.932Z,20.36
2022-08-17T04:22:31.851Z,20.42
2022-08-17T04:25:32.479Z,20.41
2022-08-17T04:28:01.162Z,20.37
2022-08-17T04:30:32.276Z,20.47
2022-08-17T04:33:06.118Z,20.46
2022-08-17T04:35:39.187Z,20.49
2022-08-17T04:38:08.204Z,20.58
2022-08-17T04:40:54.415Z,20.62
2022-08-17T04:43:23.697Z,20.60
2022-08-17T04:45:59.546Z,20.71
2022-08-17T04:48:36.617Z,20.74
2022-08-17T04:51:17.318Z,20.74
2022-08-17T04:53:53.891Z,20.81
2022-08-17T04:56:23.586Z,20.77
2022-08-17T04:58:52.429Z,20.89
2022-08-17T05:01:24.042Z,20.92
2022-08-17T05:03:59.159Z,20.94
2022-08-17T05:06:27.701Z,21.01
2022-08-17T05:08:55.866Z,21.01
2022-08-17T05:11:24.094Z,21.06
2022-08-17T05:13:51.277Z,21.10
2022-08-17T05:16:20.138Z,21.19
2022-08-17T05:18:48.125Z,21.25
2022-08-17T05:21:16.242Z,21.30
2022-08-17T05:23:44.266Z,21.37
2022-08-17T05:26:26.206Z,21.42
2022-08-17T05:28:57.293Z,21.48
2022-08-17T05:31:29.665Z,21.53
2022-08-17T05:33:57.206Z,21.59
2022-08-17T05:36:42.048Z,21.65
2022-08-17T05:39:16.413Z,21.67
2022-08-17T05:41:48.564Z,21.78
2022-08-17T05:44:16.459Z,21.86
2022-08-17T05:46:49.210Z,21.90
2022-08-17T05:49:22.100Z,21.94
2022-08-17T05:52:42.318Z,21.98
2022-08-17T05:55:16.177Z,22.10
2022-08-17T05:58:07.834Z,22.18
2022-08-17T06:01:08.141Z,22.26
2022-08-17T06:03:40.990Z,22.30
2022-08-17T06:06:31.402Z,22.34
2022-08-17T06:09:34.490Z,22.41
2022-08-17T06:12:46.177Z,22.50
2022-08-17T06:15:34.194Z,22.63
2022-08-17T06:18:13.722Z,22.73
2022-08-17T06:20:49.578Z,22.89
2022-08-17T06:23:27.410Z,23.01
2022-08-17T06:26:00.281Z,23.17
2022-08-17T06:28:44.044Z,23.34
2022-08-17T06:31:22.419Z,23.45
2022-08-17T06:33:50.497Z,23.66
2022-08-17T06:36:33.211Z,23.76
2022-08-17T06:39:04.909Z,23.92
2022-08-17T06:41:56.378Z,24.09
2022-08-17T06:44:50.087Z,24.24
2022-08-17T06:47:35.620Z,24.36
2022-08-17T06:50:14.892Z,24.51
2022-08-17T06:53:00.153Z,24.61
2022-08-17T06:55:38.243Z,24.76
2022-08-17T06:58:15.631Z,24.90
2022-08-17T07:00:47.496Z,25.01
2022-08-17T07:03:37.881Z,25.16
2022-08-17T07:06:29.646Z,25.38
2022-08-17T07:09:09.520Z,25.54
2022-08-17T07:11:58.874Z,25.71
2022-08-17T07:14:48.676Z,25.96
2022-08-17T07:17:18.612Z,26.03
2022-08-17T07:19:49.341Z,26.22
2022-08-17T07:22:57.530Z,26.35
2022-08-17T07:25:30.787Z,26.56
2022-08-17T07:28:07.274Z,26.70
2022-08-17T07:30:46.992Z,26.86
2022-08-17T07:33:20.472Z,27.00
2022-08-17T07:35:48.593Z,27.19
2022-08-17T07:38:24.661Z,27.30
2022-08-17T07:41:02.976Z,27.45
2022-08-17T07:43:39.415Z,27.62
2022-08-17T07:46:34.206Z,27.79
2022-08-17T07:49:03.332Z,27.90
2022-08-17T07:51:32.233Z,27.98
2022-08-17T07:54:14.546Z,28.06
2022-08-17T07:56:44.760Z,28.21
2022-08-17T07:59:23.307Z,28.31
2022-08-17T08:01:57.710Z,28.39
2022-08-17T08:04:59.825Z,28.47
2022-08-17T08:07:38.339Z,28.57
2022-08-17T08:10:08.263Z,28.62
2022-08-17T08:12:38.315Z,28.71
2022-08-17T08:15:19.412Z,28.84
2022-08-17T08:17:54.578Z,29.02
2022-08-17T08:20:52.563Z,29.15
2022-08-17T08:23:52.967Z,29.19
2022-08-17T08:26:36.218Z,29.29
2022-08-17T08:29:41.568Z,29.45
2022-08-17T08:32:26.923Z,29.65
2022-08-17T08:35:14.296Z,29.79
2022-08-17T08:37:59.818Z,29.91
2022-08-17T08:40:48.018Z,30.01
2022-08-17T08:43:23.459Z,30.02
2022-08-17T08:46:19.721Z,30.13
2022-08-17T08:49:45.032Z,30.22
2022-08-17T08:52:48.368Z,30.34
2022-08-17T08:55:44.740Z,30.40
2022-08-17T08:58:31.510Z,30.51
2022-08-17T09:01:19.812Z,30.51
2022-08-17T09:04:24.048Z,30.54
2022-08-17T09:06:58.102Z,30.70
2022-08-17T09:09:45.508Z,30.77
2022-08-17T09:12:26.093Z,30.81
2022-08-17T09:15:27.938Z,30.91
2022-08-17T09:19:00.223Z,31.06
2022-08-17T09:21:21.763Z,31.09
2022-08-17T09:24:04.902Z,31.10
2022-08-17T09:26:54.138Z,31.17
2022-08-17T09:29:25.727Z,31.28
2022-08-17T09:32:03.909Z,31.28
2022-08-17T09:34:38.855Z,31.31
2022-08-17T09:37:16.583Z,31.41
2022-08-17T09:39:53.597Z,31.53
2022-08-17T09:42:28.544Z,31.56
2022-08-17T09:45:21.576Z,31.57
2022-08-17T09:47:52.265Z,31.64
2022-08-17T09:51:03.633Z,31.63
2022-08-17T09:53:12.571Z,31.82
2022-08-17T09:56:03.350Z,31.90
2022-08-17T09:58:40.747Z,31.96
2022-08-17T10:01:36.578Z,32.08
2022-08-17T10:04:30.856Z,32.17
2022-08-17T10:07:04.613Z,32.23
2022-08-17T10:09:42.837Z,32.31
2022-08-17T10:12:37.061Z,32.39
2022-08-17T10:15:25.476Z,32.41
2022-08-17T10:18:08.721Z,32.45
2022-08-17T10:21:19.147Z,32.48
2022-08-17T10:24:09.826Z,32.56
2022-08-17T10:26:56.150Z,32.56
2022-08-17T10:29:28.984Z,32.63
2022-08-17T10:32:04.875Z,32.70
2022-08-17T10:34:52.523Z,32.83
2022-08-17T10:37:48.683Z,32.92
2022-08-17T10:40:28.087Z,33.00
2022-08-17T10:43:14.819Z,32.99
2022-08-17T10:46:10.396Z,33.08
2022-08-17T10:49:19.030Z,33.07
2022-08-17T10:51:53.705Z,33.08
2022-08-17T10:54:35.717Z,33.17
2022-08-17T10:57:02.983Z,33.17
2022-08-17T10:59:36.185Z,33.15
2022-08-17T11:02:15.366Z,33.18
2022-08-17T11:05:14.862Z,33.23
2022-08-17T11:08:11.996Z,33.23
2022-08-17T11:10:53.879Z,33.29
2022-08-17T11:13:23.558Z,33.37
2022-08-17T11:16:09.135Z,33.36
2022-08-17T11:18:48.788Z,33.43
2022-08-17T11:21:42.537Z,33.47
2022-08-17T11:24:43.376Z,33.47
2022-08-17T11:27:30.170Z,33.47
2022-08-17T11:30:38.687Z,33.57
2022-08-17T11:33:29.128Z,33.44
2022-08-17T11:36:38.063Z,33.43
2022-08-17T11:39:15.135Z,33.45
2022-08-17T11:42:13.021Z,33.45
2022-08-17T11:45:01.353Z,33.40
2022-08-17T11:48:27.896Z,33.40
2022-08-17T11:51:28.627Z,33.41
2022-08-17T11:54:21.560Z,33.32
2022-08-17T11:56:51.456Z,33.34
2022-08-17T11:59:33.651Z,33.33
2022-08-17T12:02:03.789Z,33.34
2022-08-17T12:04:33.541Z,33.28
2022-08-17T12:07:20.835Z,33.12
2022-08-17T12:09:51.166Z,33.08
2022-08-17T12:12:22.304Z,32.98
2022-08-17T12:15:11.433Z,32.91
2022-08-17T12:17:40.691Z,32.78
2022-08-17T12:20:14.706Z,32.75
2022-08-17T12:23:16.999Z,32.72
2022-08-17T12:25:57.207Z,32.71
2022-08-17T12:28:47.193Z,32.72
2022-08-17T12:31:22.241Z,32.73
2022-08-17T12:33:51.967Z,32.71
2022-08-17T12:36:26.667Z,32.63
2022-08-17T12:39:14.302Z,32.72
2022-08-17T12:41:48.197Z,32.70
2022-08-17T12:44:20.787Z,32.62
2022-08-17T12:47:02.159Z,32.58
2022-08-17T12:49:33.346Z,32.54
2022-08-17T12:52:13.786Z,32.44
2022-08-17T12:54:47.927Z,32.45
2022-08-17T12:57:24.786Z,32.39
2022-08-17T12:59:57.433Z,32.38
2022-08-17T13:02:42.455Z,32.35
2022-08-17T13:05:20.533Z,32.33
2022-08-17T13:07:47.926Z,32.28
2022-08-17T13:10:33.152Z,32.31
2022-08-17T13:13:17.810Z,32.33
2022-08-17T13:16:03.721Z,32.31
2022-08-17T13:18:39.167Z,32.32
2022-08-17T13:21:12.812Z,32.33
2022-08-17T13:23:39.951Z,32.30
2022-08-17T13:26:17.966Z,32.29
2022-08-17T13:28:51.950Z,32.24
2022-08-17T13:31:21.841Z,32.22
2022-08-17T13:33:48.875Z,32.10
2022-08-17T13:36:32.249Z,32.03
2022-08-17T13:39:19.191Z,31.89
2022-08-17T13:41:48.705Z,31.88
2022-08-17T13:44:39.461Z,31.76
2022-08-17T13:47:17.721Z,31.69
2022-08-17T13:49:48.667Z,31.66
2022-08-17T13:52:37.955Z,31.61
2022-08-17T13:55:17.678Z,31.58
2022-08-17T13:57:48.416Z,31.57
2022-08-17T14:00:33.059Z,31.56
2022-08-17T14:03:02.262Z,31.55
2022-08-17T14:05:31.384Z,31.44
2022-08-17T14:08:06.412Z,31.47
2022-08-17T14:10:36.686Z,31.43
2022-08-17T14:13:05.748Z,31.37
2022-08-17T14:15:55.063Z,31.28
2022-08-17T14:18:41.999Z,31.20
2022-08-17T14:21:09.639Z,31.12
2022-08-17T14:23:37.852Z,31.05
2022-08-17T14:26:05.568Z,30.99
2022-08-17T14:28:32.743Z,30.95
2022-08-17T14:31:03.109Z,30.87
2022-08-17T14:33:30.225Z,30.80
2022-08-17T14:35:57.820Z,30.83
2022-08-17T14:38:25.074Z,30.81
2022-08-17T14:40:52.593Z,30.78
2022-08-17T14:43:21.049Z,30.79
2022-08-17T14:45:48.149Z,30.78
2022-08-17T14:48:16.103Z,30.77
2022-08-17T14:50:44.501Z,30.73
2022-08-17T14:53:14.590Z,30.69
2022-08-17T14:55:41.688Z,30.65
2022-08-17T14:58:09.339Z,30.56
2022-08-17T15:00:37.005Z,30.56
2022-08-17T15:03:05.418Z,30.54
2022-08-17T15:05:36.801Z,30.51
2022-08-17T15:08:07.795Z,30.50
2022-08-17T15:10:35.579Z,30.47
2022-08-17T15:13:02.726Z,30.43
2022-08-17T15:15:30.499Z,30.45
2022-08-17T15:17:58.818Z,30.44
2022-08-17T15:20:29.000Z,30.40
2022-08-17T15:22:57.640Z,30.39
2022-08-17T15:25:27.720Z,30.35
2022-08-17T15:27:56.137Z,30.21
2022-08-17T15:30:25.900Z,30.27
2022-08-17T15:32:55.378Z,30.24
2022-08-17T15:35:29.077Z,30.21
2022-08-17T15:37:58.480Z,30.15
2022-08-17T15:40:25.630Z,30.12
2022-08-17T15:42:53.171Z,30.04
2022-08-17T15:45:24.732Z,30.07
2022-08-17T15:47:53.703Z,29.99
2022-08-17T15:50:20.801Z,29.99
2022-08-17T15:52:53.910Z,29.92
2022-08-17T15:55:24.192Z,29.90
2022-08-17T15:57:52.432Z,29.87
2022-08-17T16:00:20.139Z,29.82
2022-08-17T16:03:45.711Z,29.79
2022-08-17T16:05:35.985Z,29.73
2022-08-17T16:08:04.526Z,29.64
2022-08-17T16:10:35.271Z,29.60
2022-08-17T16:13:04.564Z,29.54
2022-08-17T16:15:32.166Z,29.50
2022-08-17T16:17:59.836Z,29.48
2022-08-17T16:20:27.805Z,29.42
2022-08-17T16:22:55.443Z,29.38
2022-08-17T16:25:47.218Z,29.36
2022-08-17T16:28:16.061Z,29.31
2022-08-17T16:30:43.580Z,29.28
2022-08-17T16:33:12.110Z,29.24
2022-08-17T16:35:39.718Z,29.24
2022-08-17T16:38:07.491Z,29.20
2022-08-17T16:40:36.418Z,29.17
2022-08-17T16:43:10.770Z,29.11
2022-08-17T16:45:40.848Z,29.11
2022-08-17T16:48:09.792Z,29.08
2022-08-17T16:50:37.550Z,29.03
2022-08-17T16:53:10.878Z,29.04
2022-08-17T16:55:38.458Z,28.95
2022-08-17T16:58:06.915Z,28.97
2022-08-17T17:00:34.486Z,28.95
2022-08-17T17:03:31.551Z,28.89
2022-08-17T17:06:16.265Z,28.82
2022-08-17T17:08:56.299Z,28.81
2022-08-17T17:11:43.092Z,28.77
2022-08-17T17:14:16.123Z,28.76
2022-08-17T17:17:23.589Z,28.68
2022-08-17T17:20:03.024Z,28.69
2022-08-17T17:22:45.299Z,28.69
2022-08-17T17:25:25.493Z,28.67
2022-08-17T17:28:25.014Z,28.62
2022-08-17T17:31:01.916Z,28.58
2022-08-17T17:33:55.968Z,28.51
2022-08-17T17:36:25.681Z,28.47
2022-08-17T17:39:00.389Z,28.43
2022-08-17T17:41:37.360Z,28.38
2022-08-17T17:44:12.016Z,28.33
2022-08-17T17:46:44.668Z,28.29
2022-08-17T17:49:14.456Z,28.20
2022-08-17T17:52:11.137Z,28.14
2022-08-17T17:55:01.130Z,28.00
2022-08-17T17:57:54.709Z,27.91
2022-08-17T18:00:23.798Z,27.77
2022-08-17T18:03:15.756Z,27.66
2022-08-17T18:06:21.473Z,27.54
2022-08-17T18:08:54.963Z,27.47
2022-08-17T18:11:25.278Z,27.42
2022-08-17T18:14:21.545Z,27.35
2022-08-17T18:16:55.954Z,27.30
2022-08-17T18:19:25.706Z,27.23
2022-08-17T18:22:01.711Z,27.20
2022-08-17T18:24:35.168Z,27.16
2022-08-17T18:27:08.509Z,27.13
2022-08-17T18:29:43.011Z,27.12
2022-08-17T18:32:28.397Z,27.09
2022-08-17T18:34:59.703Z,27.12
2022-08-17T18:37:52.138Z,27.06
2022-08-17T18:40:19.746Z,27.08
2022-08-17T18:43:13.160Z,27.05
2022-08-17T18:45:47.501Z,27.03
2022-08-17T18:48:19.982Z,26.97
2022-08-17T18:50:47.481Z,26.94
2022-08-17T18:53:33.447Z,26.91
2022-08-17T18:56:22.199Z,26.89
2022-08-17T18:59:22.831Z,26.84
2022-08-17T19:02:34.623Z,26.77
2022-08-17T19:05:16.271Z,26.72
2022-08-17T19:07:46.300Z,26.66
2022-08-17T19:10:32.690Z,26.59
2022-08-17T19:13:31.552Z,26.53
2022-08-17T19:16:15.731Z,26.51
2022-08-17T19:19:00.430Z,26.48
2022-08-17T19:21:34.888Z,26.47
2022-08-17T19:24:21.391Z,26.40
2022-08-17T19:27:08.741Z,26.44
2022-08-17T19:29:53.985Z,26.39
2022-08-17T19:32:27.426Z,26.36
2022-08-17T19:34:56.278Z,26.32
2022-08-17T19:38:00.867Z,26.32
2022-08-17T19:40:53.766Z,26.30
2022-08-17T19:43:43.699Z,26.28
2022-08-17T19:46:29.681Z,26.27
2022-08-17T19:49:40.807Z,26.27
2022-08-17T19:52:43.310Z,26.22
2022-08-17T19:55:38.679Z,26.23
2022-08-17T19:58:20.034Z,26.16
2022-08-17T20:00:51.599Z,26.18
2022-08-17T20:03:51.293Z,26.13
2022-08-17T20:06:21.160Z,26.10
2022-08-17T20:09:02.693Z,26.12
2022-08-17T20:11:47.635Z,26.12
2022-08-17T20:14:20.646Z,26.12
2022-08-17T20:16:47.967Z,26.00
2022-08-17T20:19:21.248Z,26.04
2022-08-17T20:22:00.379Z,26.01
2022-08-17T20:24:35.638Z,25.99
2022-08-17T20:27:33.769Z,25.96
2022-08-17T20:30:35.057Z,25.92
2022-08-17T20:33:02.876Z,25.88
2022-08-17T20:35:32.921Z,25.86
2022-08-17T20:38:12.970Z,25.82
2022-08-17T20:41:03.289Z,25.75
2022-08-17T20:43:33.667Z,25.71
2022-08-17T20:46:32.285Z,25.70
2022-08-17T20:49:22.222Z,25.68
2022-08-17T20:52:10.877Z,25.62
2022-08-17T20:54:51.849Z,25.58
2022-08-17T20:57:36.902Z,25.51
2022-08-17T21:00:15.544Z,25.46
2022-08-17T21:02:45.735Z,25.36
2022-08-17T21:05:30.386Z,25.34
2022-08-17T21:08:01.338Z,25.24
2022-08-17T21:10:35.846Z,25.14
2022-08-17T21:13:13.933Z,25.03
2022-08-17T21:15:42.627Z,24.96
2022-08-17T21:18:18.721Z,24.95
2022-08-17T21:21:28.324Z,24.95
2022-08-17T21:24:01.079Z,24.93
2022-08-17T21:26:50.320Z,24.94
2022-08-17T21:29:31.779Z,24.93
2022-08-17T21:31:59.746Z,24.86
2022-08-17T21:34:39.157Z,24.76
2022-08-17T21:37:23.935Z,24.69
2022-08-17T21:40:01.645Z,24.71
2022-08-17T21:42:33.657Z,24.71
2022-08-17T21:45:19.255Z,24.73
2022-08-17T21:48:21.068Z,24.69
2022-08-17T21:51:03.912Z,24.61
2022-08-17T21:53:42.889Z,24.50
2022-08-17T21:56:12.965Z,24.47
2022-08-17T21:58:48.317Z,24.45
2022-08-17T22:01:24.024Z,24.44
2022-08-17T22:04:03.544Z,24.44
2022-08-17T22:06:40.229Z,24.42
2022-08-17T22:09:10.091Z,24.47
2022-08-17T22:12:00.418Z,24.45
2022-08-17T22:14:52.821Z,24.43
2022-08-17T22:17:30.340Z,24.46
2022-08-17T22:20:19.420Z,24.46
2022-08-17T22:23:05.172Z,24.45
2022-08-17T22:25:36.131Z,24.45
2022-08-17T22:28:10.442Z,24.44
2022-08-17T22:30:40.833Z,24.44
2022-08-17T22:33:39.857Z,24.42
2022-08-17T22:36:32.865Z,24.34
2022-08-17T22:39:23.262Z,24.28
2022-08-17T22:41:52.352Z,24.27
2022-08-17T22:44:50.329Z,24.25
2022-08-17T22:47:18.990Z,24.20
2022-08-17T22:49:54.027Z,24.13
2022-08-17T22:52:32.541Z,24.02
2022-08-17T22:55:34.714Z,24.09
2022-08-17T22:58:28.195Z,24.02
2022-08-17T23:00:56.043Z,24.07
2022-08-17T23:03:26.450Z,24.07
2022-08-17T23:06:11.403Z,24.06
2022-08-17T23:08:58.217Z,24.04
2022-08-17T23:11:36.811Z,24.05
2022-08-17T23:14:19.365Z,23.96
2022-08-17T23:16:47.984Z,24.02
2022-08-17T23:19:19.648Z,24.02
2022-08-17T23:21:47.633Z,23.97
2022-08-17T23:24:21.783Z,24.03
2022-08-17T23:26:49.341Z,24.01
2022-08-17T23:29:17.022Z,23.95
2022-08-17T23:31:44.278Z,23.85
2022-08-17T23:34:14.836Z,23.85
2022-08-17T23:36:42.378Z,23.80
2022-08-17T23:39:09.562Z,23.82
2022-08-17T23:41:40.268Z,23.83
2022-08-17T23:44:07.645Z,23.79
2022-08-17T23:46:35.149Z,23.80
2022-08-17T23:49:03.428Z,23.77
2022-08-17T23:51:42.627Z,23.75
2022-08-17T23:54:19.886Z,23.75
2022-08-17T23:56:47.170Z,23.77
2022-08-17T23:59:19.347Z,23.74
